Time;durP1;ratioP1;P1;durP2;ratioP2;P2;SDS_P1;SDS_P2;PMS_P1;PMS_P2;Temp;Humidity;BMP_temperature;BMP_pressure;BME280_temperature;BME280_humidity;BME280_pressure;Samples;Min_cycle;Max_cycle;Signal;HPM_P1;HPM_P2
2023/08/29 00:00:39;;;;;;;6.00;3.40;;;;;;;;;;5048398;28;20462;-78
2023/08/29 00:03:07;;;;;;;4.00;3.60;;;;;;;;;;5050693;28;21007;-79
2023/08/29 00:05:33;;;;;;;4.87;3.93;;;;;;;;;;5065765;28;20486;-78
2023/08/29 00:08:00;;;;;;;4.70;3.90;;;;;;;;;;5065353;28;20461;-78
2023/08/29 00:10:26;;;;;;;5.83;3.40;;;;;;;;;;5045384;28;20475;-79
2023/08/29 00:12:53;;;;;;;4.20;3.30;;;;;;;;;;5054150;28;20961;-78
2023/08/29 00:15:19;;;;;;;3.83;3.40;;;;;;;;;;5060248;28;20446;-78
2023/08/29 00:17:47;;;;;;;3.73;3.43;;;;;;;;;;5054420;28;20463;-78
2023/08/29 00:20:15;;;;;;;3.70;3.40;;;;;;;;;;5056899;28;20441;-78
2023/08/29 00:22:41;;;;;;;3.03;2.83;;;;;;;;;;5049177;28;20466;-79
2023/08/29 00:25:08;;;;;;;6.30;3.43;;;;;;;;;;5060304;28;20499;-78
2023/08/29 00:27:34;;;;;;;4.13;3.70;;;;;;;;;;5052528;28;21009;-79
2023/08/29 00:30:01;;;;;;;6.67;3.67;;;;;;;;;;5058357;28;20486;-78
2023/08/29 00:32:28;;;;;;;6.33;3.40;;;;;;;;;;5047337;28;20443;-81
2023/08/29 00:34:54;;;;;;;3.70;3.40;;;;;;;;;;5036116;28;20516;-79
2023/08/29 00:37:22;;;;;;;3.93;3.43;;;;;;;;;;5038312;28;20466;-78
2023/08/29 00:39:49;;;;;;;4.40;4.00;;;;;;;;;;5060225;28;20442;-78
2023/08/29 00:42:15;;;;;;;3.93;3.63;;;;;;;;;;5043290;28;20481;-78
2023/08/29 00:44:42;;;;;;;4.97;3.33;;;;;;;;;;5056543;27;20487;-78
2023/08/29 00:47:08;;;;;;;4.07;3.77;;;;;;;;;;5048691;28;21026;-79
2023/08/29 00:49:35;;;;;;;4.33;4.00;;;;;;;;;;5060372;28;20451;-78
2023/08/29 00:52:03;;;;;;;4.30;3.90;;;;;;;;;;5049430;28;20838;-78
2023/08/29 00:54:31;;;;;;;4.17;3.87;;;;;;;;;;5048345;28;20447;-78
2023/08/29 00:56:57;;;;;;;7.77;4.93;;;;;;;;;;5050929;28;20811;-78
2023/08/29 00:59:23;;;;;;;4.40;3.60;;;;;;;;;;5057258;28;20460;-78
2023/08/29 01:01:50;;;;;;;4.37;3.93;;;;;;;;;;5047791;28;20473;-79
2023/08/29 01:04:16;;;;;;;4.13;3.83;;;;;;;;;;5054866;28;20984;-79
2023/08/29 01:06:43;;;;;;;4.30;3.83;;;;;;;;;;5059328;28;20460;-78
2023/08/29 01:09:10;;;;;;;4.50;4.10;;;;;;;;;;5056686;28;20434;-78
2023/08/29 01:11:43;;;;;;;4.33;3.93;;;;;;;;;;5050573;28;21035;-78
2023/08/29 01:14:14;;;;;;;3.90;3.60;;;;;;;;;;5059648;28;20530;-78
2023/08/29 01:16:42;;;;;;;5.80;3.97;;;;;;;;;;5055777;28;20463;-78
2023/08/29 01:19:12;;;;;;;5.00;3.80;;;;;;;;;;5035584;28;20891;-78
2023/08/29 01:21:46;;;;;;;4.83;4.43;;;;;;;;;;5050649;28;20479;-78
2023/08/29 01:24:17;;;;;;;5.30;4.00;;;;;;;;;;5045502;28;20450;-78
2023/08/29 01:26:46;;;;;;;4.97;4.57;;;;;;;;;;5048879;28;20439;-78
2023/08/29 01:29:13;;;;;;;4.60;3.60;;;;;;;;;;5045078;28;20895;-78
2023/08/29 01:31:39;;;;;;;5.83;3.60;;;;;;;;;;5050639;28;20471;-79
2023/08/29 01:34:06;;;;;;;4.43;4.00;;;;;;;;;;5039488;28;21205;-78
2023/08/29 01:36:38;;;;;;;3.87;3.57;;;;;;;;;;5062769;28;20486;-78
2023/08/29 01:39:06;;;;;;;4.57;4.00;;;;;;;;;;5048989;28;20471;-79
2023/08/29 01:41:33;;;;;;;4.93;4.47;;;;;;;;;;5043254;28;20468;-79
2023/08/29 01:44:02;;;;;;;4.70;4.20;;;;;;;;;;5047039;28;20463;-79
2023/08/29 01:46:28;;;;;;;4.93;4.30;;;;;;;;;;5044497;28;20463;-79
2023/08/29 01:48:55;;;;;;;5.03;4.10;;;;;;;;;;5060415;28;20452;-78
2023/08/29 01:51:22;;;;;;;5.80;5.23;;;;;;;;;;5045317;28;20848;-78
2023/08/29 01:53:48;;;;;;;5.03;4.33;;;;;;;;;;5047661;28;20442;-79
2023/08/29 01:56:16;;;;;;;6.70;5.17;;;;;;;;;;5048951;28;20479;-79
2023/08/29 01:58:43;;;;;;;8.53;4.73;;;;;;;;;;5057048;28;20471;-78
2023/08/29 02:01:12;;;;;;;5.70;5.20;;;;;;;;;;5046762;28;20492;-79
2023/08/29 02:03:38;;;;;;;5.87;5.30;;;;;;;;;;5058572;28;21027;-78
2023/08/29 02:06:05;;;;;;;5.10;4.70;;;;;;;;;;5062247;28;20498;-78
2023/08/29 02:08:31;;;;;;;5.37;4.63;;;;;;;;;;5052550;28;20789;-78
2023/08/29 02:10:58;;;;;;;5.93;5.00;;;;;;;;;;5047029;28;20485;-78
2023/08/29 02:13:24;;;;;;;6.83;4.57;;;;;;;;;;5040599;28;20450;-78
2023/08/29 02:15:50;;;;;;;5.50;3.77;;;;;;;;;;5049233;28;20487;-78
2023/08/29 02:18:18;;;;;;;5.30;4.30;;;;;;;;;;5058553;28;20478;-79
2023/08/29 02:20:44;;;;;;;5.20;4.70;;;;;;;;;;5046117;28;20441;-79
2023/08/29 02:23:11;;;;;;;4.70;4.30;;;;;;;;;;5059765;28;20466;-79
2023/08/29 02:25:37;;;;;;;5.60;4.73;;;;;;;;;;5048668;28;20456;-79
2023/08/29 02:28:03;;;;;;;7.00;5.23;;;;;;;;;;5049623;28;20436;-79
2023/08/29 02:30:30;;;;;;;5.93;5.43;;;;;;;;;;5051578;28;20461;-79
2023/08/29 02:32:57;;;;;;;6.13;5.50;;;;;;;;;;5055483;28;20816;-79
2023/08/29 02:35:25;;;;;;;8.40;5.27;;;;;;;;;;5040247;28;20468;-79
2023/08/29 02:37:51;;;;;;;8.47;4.50;;;;;;;;;;5043497;28;20483;-79
2023/08/29 02:40:18;;;;;;;7.50;5.70;;;;;;;;;;5056308;28;20461;-79
2023/08/29 02:42:44;;;;;;;4.87;4.10;;;;;;;;;;5056744;28;20849;-79
2023/08/29 02:45:11;;;;;;;6.30;4.73;;;;;;;;;;5047574;28;20463;-79
2023/08/29 02:47:39;;;;;;;7.80;5.10;;;;;;;;;;5063668;28;20467;-79
2023/08/29 02:50:06;;;;;;;5.00;4.37;;;;;;;;;;5058990;28;20477;-79
2023/08/29 02:52:34;;;;;;;4.33;3.93;;;;;;;;;;5064421;28;21052;-80
2023/08/29 02:55:00;;;;;;;5.27;4.40;;;;;;;;;;5055941;28;20493;-79
2023/08/29 02:57:27;;;;;;;4.50;4.10;;;;;;;;;;5043306;28;20487;-80
2023/08/29 02:59:53;;;;;;;5.37;4.87;;;;;;;;;;5046702;28;20490;-79
2023/08/29 03:02:19;;;;;;;4.93;4.33;;;;;;;;;;5049511;28;21124;-80
2023/08/29 03:04:46;;;;;;;9.83;5.37;;;;;;;;;;5047197;28;20449;-79
2023/08/29 03:07:12;;;;;;;5.37;4.90;;;;;;;;;;5050669;28;20437;-79
2023/08/29 03:09:40;;;;;;;4.70;4.30;;;;;;;;;;5050539;28;20885;-79
2023/08/29 03:12:07;;;;;;;9.30;4.83;;;;;;;;;;5044723;28;20458;-79
2023/08/29 03:14:34;;;;;;;6.53;4.90;;;;;;;;;;5047809;28;20461;-79
2023/08/29 03:17:00;;;;;;;5.07;4.03;;;;;;;;;;5042036;28;20455;-80
2023/08/29 03:19:27;;;;;;;6.10;4.53;;;;;;;;;;5059131;28;20482;-79
2023/08/29 03:21:53;;;;;;;5.30;4.80;;;;;;;;;;5051134;28;20463;-79
2023/08/29 03:24:19;;;;;;;9.80;5.20;;;;;;;;;;5036197;28;20514;-79
2023/08/29 03:26:47;;;;;;;5.77;5.17;;;;;;;;;;5054152;28;20989;-79
2023/08/29 03:29:13;;;;;;;4.50;4.03;;;;;;;;;;5051516;28;20473;-79
2023/08/29 03:31:40;;;;;;;6.30;4.47;;;;;;;;;;5044952;28;20518;-78
2023/08/29 03:34:06;;;;;;;5.83;4.77;;;;;;;;;;5050589;28;20471;-79
2023/08/29 03:36:33;;;;;;;6.43;5.30;;;;;;;;;;5059055;28;20469;-79
2023/08/29 03:38:59;;;;;;;7.40;5.13;;;;;;;;;;5059652;28;20465;-79
2023/08/29 03:41:25;;;;;;;6.13;5.17;;;;;;;;;;5048916;28;20473;-78
2023/08/29 03:43:53;;;;;;;6.00;4.93;;;;;;;;;;5039353;28;20458;-79
2023/08/29 03:46:21;;;;;;;5.40;4.90;;;;;;;;;;5045854;28;20533;-79
2023/08/29 03:48:47;;;;;;;4.13;3.83;;;;;;;;;;5054465;28;20471;-79
2023/08/29 03:51:14;;;;;;;5.47;4.97;;;;;;;;;;5055798;28;20467;-79
2023/08/29 03:53:40;;;;;;;5.90;5.10;;;;;;;;;;5052774;28;20438;-78
2023/08/29 03:56:08;;;;;;;6.50;4.47;;;;;;;;;;5037890;28;20483;-79
2023/08/29 03:58:35;;;;;;;7.73;5.23;;;;;;;;;;5045548;28;20856;-79
2023/08/29 04:01:04;;;;;;;8.70;5.10;;;;;;;;;;5046114;28;20455;-79
2023/08/29 04:03:30;;;;;;;7.00;6.17;;;;;;;;;;5050665;28;20476;-79
2023/08/29 04:05:57;;;;;;;11.03;6.10;;;;;;;;;;5043402;28;21004;-79
2023/08/29 04:08:23;;;;;;;11.33;6.80;;;;;;;;;;5050788;28;21031;-79
2023/08/29 04:10:50;;;;;;;8.10;6.70;;;;;;;;;;5047351;28;20481;-79
2023/08/29 04:13:17;;;;;;;7.33;6.60;;;;;;;;;;5051259;28;20471;-79
2023/08/29 04:15:43;;;;;;;7.93;6.03;;;;;;;;;;5028177;28;20537;-80
2023/08/29 04:18:11;;;;;;;6.90;6.00;;;;;;;;;;5046783;28;20449;-79
2023/08/29 04:20:37;;;;;;;7.63;6.37;;;;;;;;;;5048083;28;20857;-79
2023/08/29 04:23:04;;;;;;;7.63;5.70;;;;;;;;;;5050502;28;20571;-79
2023/08/29 04:25:31;;;;;;;5.17;4.77;;;;;;;;;;5042700;28;20471;-80
2023/08/29 04:27:58;;;;;;;5.60;5.10;;;;;;;;;;5048546;28;20519;-80
2023/08/29 04:30:25;;;;;;;6.37;5.77;;;;;;;;;;5042784;28;20452;-80
2023/08/29 04:32:52;;;;;;;8.33;5.60;;;;;;;;;;5053178;28;20468;-80
2023/08/29 04:35:20;;;;;;;8.57;6.50;;;;;;;;;;5030644;28;20460;-79
2023/08/29 04:37:48;;;;;;;5.97;5.47;;;;;;;;;;5053358;28;20471;-79
2023/08/29 04:40:15;;;;;;;6.70;5.70;;;;;;;;;;5043838;28;20544;-80
2023/08/29 04:42:42;;;;;;;9.70;6.40;;;;;;;;;;5044255;28;20481;-80
2023/08/29 04:45:09;;;;;;;5.83;5.23;;;;;;;;;;5050915;28;20487;-79
2023/08/29 04:47:35;;;;;;;7.20;5.50;;;;;;;;;;5054059;28;20466;-79
2023/08/29 04:50:03;;;;;;;6.47;5.80;;;;;;;;;;5051165;28;21009;-80
2023/08/29 04:52:31;;;;;;;7.50;5.23;;;;;;;;;;5047161;28;20480;-80
2023/08/29 04:54:58;;;;;;;7.70;5.53;;;;;;;;;;5048381;28;20523;-80
2023/08/29 04:57:26;;;;;;;7.73;5.60;;;;;;;;;;5051125;28;20462;-81
2023/08/29 04:59:53;;;;;;;8.30;6.20;;;;;;;;;;5037124;28;20830;-81
2023/08/29 05:02:22;;;;;;;7.57;5.23;;;;;;;;;;5052181;28;20494;-81
2023/08/29 05:04:48;;;;;;;7.90;6.80;;;;;;;;;;5052066;28;20478;-81
2023/08/29 05:07:14;;;;;;;7.40;6.70;;;;;;;;;;5046757;28;20491;-81
2023/08/29 05:09:42;;;;;;;7.97;7.17;;;;;;;;;;5055014;28;20476;-81
2023/08/29 05:12:10;;;;;;;8.13;7.20;;;;;;;;;;5056690;28;20479;-81
2023/08/29 05:14:37;;;;;;;8.37;7.57;;;;;;;;;;5056805;28;20471;-81
2023/08/29 05:17:03;;;;;;;10.30;8.23;;;;;;;;;;5055267;28;20486;-80
2023/08/29 05:19:30;;;;;;;10.10;6.57;;;;;;;;;;5055453;28;20468;-81
2023/08/29 05:21:56;;;;;;;8.93;7.70;;;;;;;;;;5036187;28;20484;-81
2023/08/29 05:24:23;;;;;;;7.10;6.40;;;;;;;;;;5051156;28;20473;-80
2023/08/29 05:26:50;;;;;;;8.30;7.40;;;;;;;;;;5052907;28;20483;-80
2023/08/29 05:29:17;;;;;;;6.43;5.83;;;;;;;;;;5050219;28;21005;-80
2023/08/29 05:31:43;;;;;;;9.30;7.40;;;;;;;;;;5038797;28;20504;-81
2023/08/29 05:34:09;;;;;;;7.13;6.43;;;;;;;;;;5044394;28;20576;-80
2023/08/29 05:36:36;;;;;;;8.77;7.20;;;;;;;;;;5046736;28;21007;-81
2023/08/29 05:39:02;;;;;;;7.43;6.73;;;;;;;;;;5057823;28;20475;-81
2023/08/29 05:41:29;;;;;;;7.80;6.80;;;;;;;;;;5041719;28;20591;-81
2023/08/29 05:43:57;;;;;;;7.10;6.40;;;;;;;;;;5057766;28;20890;-80
2023/08/29 05:46:23;;;;;;;8.10;6.10;;;;;;;;;;5054338;28;21000;-80
2023/08/29 05:48:50;;;;;;;8.37;5.97;;;;;;;;;;5046697;28;20564;-80
2023/08/29 05:51:16;;;;;;;8.63;6.00;;;;;;;;;;5057401;28;20478;-80
2023/08/29 05:53:42;;;;;;;7.00;6.33;;;;;;;;;;5041368;28;20461;-80
2023/08/29 05:56:09;;;;;;;10.17;8.43;;;;;;;;;;5052750;28;20476;-80
2023/08/29 05:58:36;;;;;;;10.10;9.10;;;;;;;;;;5047441;28;20462;-80
2023/08/29 06:01:06;;;;;;;10.23;8.80;;;;;;;;;;5048969;28;20439;-80
2023/08/29 06:03:34;;;;;;;14.00;11.10;;;;;;;;;;5042282;28;20489;-80
2023/08/29 06:06:03;;;;;;;14.63;10.20;;;;;;;;;;5047818;28;21013;-80
2023/08/29 06:08:29;;;;;;;15.37;10.47;;;;;;;;;;5053614;28;20523;-80
2023/08/29 06:10:56;;;;;;;13.00;9.27;;;;;;;;;;5054061;28;20477;-80
2023/08/29 06:13:22;;;;;;;11.20;9.40;;;;;;;;;;5052102;28;20472;-80
2023/08/29 06:15:48;;;;;;;11.97;9.90;;;;;;;;;;5050779;28;20461;-80
2023/08/29 06:18:16;;;;;;;12.60;9.83;;;;;;;;;;5049938;28;20480;-80
2023/08/29 06:20:43;;;;;;;14.13;11.07;;;;;;;;;;5060825;28;20466;-80
2023/08/29 06:23:09;;;;;;;14.30;9.77;;;;;;;;;;5051346;28;20505;-80
2023/08/29 06:25:36;;;;;;;12.47;10.00;;;;;;;;;;5046423;28;20989;-80
2023/08/29 06:28:02;;;;;;;12.30;10.80;;;;;;;;;;5050448;28;20475;-80
2023/08/29 06:30:29;;;;;;;13.07;10.93;;;;;;;;;;5052215;28;20474;-80
2023/08/29 06:32:55;;;;;;;11.37;9.37;;;;;;;;;;5047060;28;21034;-80
2023/08/29 06:35:23;;;;;;;13.23;11.33;;;;;;;;;;5044324;28;20466;-80
2023/08/29 06:37:50;;;;;;;14.40;12.63;;;;;;;;;;5047030;28;21015;-80
2023/08/29 06:40:17;;;;;;;13.37;11.80;;;;;;;;;;5050055;28;20483;-80
2023/08/29 06:42:43;;;;;;;14.63;11.87;;;;;;;;;;5051686;28;20438;-80
2023/08/29 06:45:10;;;;;;;12.87;11.43;;;;;;;;;;5055824;28;20471;-80
2023/08/29 06:47:37;;;;;;;13.20;11.73;;;;;;;;;;5050849;28;20516;-80
2023/08/29 06:50:03;;;;;;;12.40;11.20;;;;;;;;;;5049018;28;20489;-80
2023/08/29 06:52:31;;;;;;;13.70;12.30;;;;;;;;;;5051681;28;20451;-80
2023/08/29 06:54:57;;;;;;;13.77;11.80;;;;;;;;;;5046285;28;20943;-80
2023/08/29 06:57:24;;;;;;;11.97;10.77;;;;;;;;;;5061078;28;20457;-81
2023/08/29 06:59:51;;;;;;;12.73;11.43;;;;;;;;;;5056751;28;20478;-80
2023/08/29 07:02:17;;;;;;;13.50;11.10;;;;;;;;;;5050394;28;20449;-80
2023/08/29 07:04:43;;;;;;;13.50;12.13;;;;;;;;;;5062903;28;20441;-80
2023/08/29 07:07:10;;;;;;;13.33;11.00;;;;;;;;;;5062727;28;20498;-81
2023/08/29 07:09:37;;;;;;;12.80;11.60;;;;;;;;;;5051496;28;20480;-80
2023/08/29 07:12:04;;;;;;;13.47;11.40;;;;;;;;;;5055193;28;20446;-80
2023/08/29 07:14:31;;;;;;;10.93;9.83;;;;;;;;;;5052683;28;20997;-80
2023/08/29 07:16:57;;;;;;;13.90;11.70;;;;;;;;;;5047609;28;20444;-80
2023/08/29 07:19:24;;;;;;;11.30;10.10;;;;;;;;;;5057456;28;20454;-80
2023/08/29 07:21:52;;;;;;;11.70;10.20;;;;;;;;;;5053955;28;20537;-80
2023/08/29 07:24:19;;;;;;;17.53;10.70;;;;;;;;;;5051997;28;20458;-80
2023/08/29 07:26:47;;;;;;;13.07;10.50;;;;;;;;;;5065444;28;20899;-80
2023/08/29 07:29:13;;;;;;;12.47;10.27;;;;;;;;;;5047651;28;20468;-80
2023/08/29 07:31:40;;;;;;;11.40;9.80;;;;;;;;;;5036043;28;20490;-80
2023/08/29 07:34:06;;;;;;;11.00;9.90;;;;;;;;;;5046318;28;20451;-80
2023/08/29 07:36:35;;;;;;;10.27;9.30;;;;;;;;;;5042700;28;21029;-80
2023/08/29 07:39:01;;;;;;;10.37;8.97;;;;;;;;;;5047764;28;20453;-80
2023/08/29 07:41:27;;;;;;;10.83;9.13;;;;;;;;;;5053056;28;20445;-80
2023/08/29 07:43:55;;;;;;;11.47;9.03;;;;;;;;;;5050324;28;20449;-80
2023/08/29 07:46:21;;;;;;;10.10;9.10;;;;;;;;;;5051195;28;20501;-80
2023/08/29 07:48:50;;;;;;;12.47;8.00;;;;;;;;;;5060431;28;20450;-80
2023/08/29 07:51:16;;;;;;;9.10;8.17;;;;;;;;;;5038279;28;20514;-80
2023/08/29 07:53:43;;;;;;;10.17;8.23;;;;;;;;;;5041668;28;20828;-80
2023/08/29 07:56:09;;;;;;;9.90;8.90;;;;;;;;;;5059502;28;20468;-80
2023/08/29 07:58:35;;;;;;;9.13;8.13;;;;;;;;;;5050605;28;20484;-80
2023/08/29 08:01:03;;;;;;;10.90;8.23;;;;;;;;;;5055967;28;20499;-80
2023/08/29 08:03:29;;;;;;;8.43;7.53;;;;;;;;;;5046974;28;20450;-80
2023/08/29 08:05:56;;;;;;;8.30;7.40;;;;;;;;;;5056791;28;20437;-80
2023/08/29 08:08:22;;;;;;;7.43;6.63;;;;;;;;;;5047209;28;20445;-80
2023/08/29 08:10:49;;;;;;;7.10;6.40;;;;;;;;;;5053460;28;20449;-80
2023/08/29 08:13:15;;;;;;;6.90;6.20;;;;;;;;;;5056985;28;20437;-80
2023/08/29 08:15:43;;;;;;;8.17;6.30;;;;;;;;;;5066238;28;20438;-80
2023/08/29 08:18:10;;;;;;;7.83;5.83;;;;;;;;;;5040815;28;20469;-79
2023/08/29 08:20:37;;;;;;;16.00;8.30;;;;;;;;;;5054181;28;20999;-80
2023/08/29 08:23:06;;;;;;;7.87;6.90;;;;;;;;;;5044117;28;20799;-80
2023/08/29 08:25:32;;;;;;;8.23;6.13;;;;;;;;;;5039213;28;20488;-80
2023/08/29 08:27:59;;;;;;;7.80;6.40;;;;;;;;;;5043364;28;20471;-80
2023/08/29 08:30:27;;;;;;;5.60;5.10;;;;;;;;;;5055230;28;20469;-80
2023/08/29 08:32:55;;;;;;;6.40;3.87;;;;;;;;;;5043954;28;21015;-80
2023/08/29 08:35:23;;;;;;;4.17;3.70;;;;;;;;;;5055355;28;20462;-80
2023/08/29 08:37:49;;;;;;;4.40;4.00;;;;;;;;;;5050604;28;20982;-81
2023/08/29 08:40:16;;;;;;;6.43;5.47;;;;;;;;;;5063927;28;20862;-80
2023/08/29 08:42:44;;;;;;;5.23;4.70;;;;;;;;;;5055693;28;20468;-80
2023/08/29 08:45:11;;;;;;;4.60;3.53;;;;;;;;;;5059867;28;20831;-80
2023/08/29 08:47:37;;;;;;;4.80;4.40;;;;;;;;;;5054620;28;20567;-80
2023/08/29 08:50:05;;;;;;;6.10;4.90;;;;;;;;;;5038426;28;21119;-80
2023/08/29 08:52:33;;;;;;;4.07;3.67;;;;;;;;;;5043697;28;20899;-80
2023/08/29 08:55:00;;;;;;;4.43;4.00;;;;;;;;;;5054299;28;20479;-80
2023/08/29 08:57:27;;;;;;;5.17;3.93;;;;;;;;;;5051209;28;20467;-80
2023/08/29 08:59:53;;;;;;;7.17;4.30;;;;;;;;;;5046188;28;20503;-80
2023/08/29 09:02:20;;;;;;;4.73;4.30;;;;;;;;;;5064127;28;20482;-80
2023/08/29 09:04:49;;;;;;;5.43;5.00;;;;;;;;;;5046792;28;20473;-80
2023/08/29 09:07:16;;;;;;;5.03;4.27;;;;;;;;;;5053212;28;20491;-80
2023/08/29 09:09:44;;;;;;;8.23;6.27;;;;;;;;;;5062151;28;20489;-80
2023/08/29 09:12:10;;;;;;;7.43;6.70;;;;;;;;;;5057503;28;20481;-80
2023/08/29 09:14:42;;;;;;;9.93;8.43;;;;;;;;;;5056457;28;20467;-80
2023/08/29 09:17:09;;;;;;;9.57;8.57;;;;;;;;;;5050396;28;20479;-80
2023/08/29 09:19:35;;;;;;;7.57;6.80;;;;;;;;;;5057128;28;20476;-80
2023/08/29 09:22:02;;;;;;;7.63;6.93;;;;;;;;;;5052698;28;20551;-80
2023/08/29 09:24:32;;;;;;;7.93;7.23;;;;;;;;;;5053955;28;20479;-80
2023/08/29 09:27:01;;;;;;;8.27;6.23;;;;;;;;;;5052151;28;20992;-80
2023/08/29 09:29:27;;;;;;;6.90;6.20;;;;;;;;;;5053060;28;20487;-80
2023/08/29 09:31:58;;;;;;;10.20;7.17;;;;;;;;;;5055334;28;21004;-80
2023/08/29 09:34:25;;;;;;;8.00;6.83;;;;;;;;;;5059562;28;20475;-80
2023/08/29 09:36:53;;;;;;;7.00;6.30;;;;;;;;;;5059292;28;20480;-80
2023/08/29 09:39:19;;;;;;;9.33;5.83;;;;;;;;;;5049275;28;20464;-80
2023/08/29 09:41:57;;;;;;;7.10;6.40;;;;;;;;;;5066645;28;20474;-80
2023/08/29 09:44:25;;;;;;;8.40;6.97;;;;;;;;;;5039873;28;20843;-80
2023/08/29 09:46:52;;;;;;;7.20;6.40;;;;;;;;;;5055522;28;20477;-80
2023/08/29 09:49:18;;;;;;;8.10;7.20;;;;;;;;;;5057038;28;20485;-80
2023/08/29 09:51:44;;;;;;;9.03;8.13;;;;;;;;;;5037019;28;20480;-80
2023/08/29 09:54:13;;;;;;;7.93;6.10;;;;;;;;;;5050217;28;20469;-80
2023/08/29 09:56:41;;;;;;;7.60;6.63;;;;;;;;;;5037066;28;20483;-80
2023/08/29 09:59:12;;;;;;;8.20;7.40;;;;;;;;;;5044469;28;20560;-80
2023/08/29 10:01:40;;;;;;;7.80;6.90;;;;;;;;;;5050613;28;20557;-79
2023/08/29 10:04:07;;;;;;;7.30;6.60;;;;;;;;;;5052206;28;20464;-80
2023/08/29 10:06:35;;;;;;;8.60;6.90;;;;;;;;;;5050944;28;20548;-80
2023/08/29 10:09:03;;;;;;;4.50;4.07;;;;;;;;;;5051994;28;20468;-80
2023/08/29 10:11:29;;;;;;;7.07;6.13;;;;;;;;;;5042351;28;21188;-80
2023/08/29 10:13:58;;;;;;;8.67;6.43;;;;;;;;;;5048397;28;20826;-80
2023/08/29 10:16:24;;;;;;;10.37;6.60;;;;;;;;;;5060127;28;20488;-80
2023/08/29 10:18:55;;;;;;;8.30;6.27;;;;;;;;;;5038111;28;20467;-80
2023/08/29 10:21:22;;;;;;;8.17;7.03;;;;;;;;;;5058466;28;20487;-81
2023/08/29 10:23:49;;;;;;;6.23;5.63;;;;;;;;;;5054640;28;20988;-80
2023/08/29 10:26:16;;;;;;;8.40;5.10;;;;;;;;;;5057877;28;20466;-80
2023/08/29 10:28:43;;;;;;;8.30;5.30;;;;;;;;;;5051741;28;20539;-80
2023/08/29 10:31:10;;;;;;;6.00;4.00;;;;;;;;;;5043889;28;20510;-81
2023/08/29 10:33:37;;;;;;;7.20;5.60;;;;;;;;;;5041468;28;20464;-80
2023/08/29 10:36:08;;;;;;;6.43;4.83;;;;;;;;;;5061297;28;20482;-81
2023/08/29 10:38:39;;;;;;;7.17;6.47;;;;;;;;;;5048506;28;21650;-80
2023/08/29 10:41:06;;;;;;;6.00;4.73;;;;;;;;;;5044093;28;20481;-80
2023/08/29 10:43:34;;;;;;;8.23;5.23;;;;;;;;;;5046303;28;21054;-80
2023/08/29 10:46:14;;;;;;;3.77;3.40;;;;;;;;;;5066139;28;20573;-80
2023/08/29 10:48:49;;;;;;;3.00;2.80;;;;;;;;;;5036150;28;21044;-80
2023/08/29 10:51:19;;;;;;;2.83;2.20;;;;;;;;;;5057902;28;20474;-81
2023/08/29 10:53:48;;;;;;;3.80;3.00;;;;;;;;;;5058309;28;20471;-80
2023/08/29 10:56:17;;;;;;;3.27;2.97;;;;;;;;;;5061774;28;20484;-80
2023/08/29 10:58:44;;;;;;;3.27;3.00;;;;;;;;;;5058946;28;20469;-81
2023/08/29 11:01:30;;;;;;;4.30;3.50;;;;;;;;;;5052463;28;21089;-81
2023/08/29 11:03:57;;;;;;;3.90;3.50;;;;;;;;;;5053882;28;21008;-81
2023/08/29 11:06:26;;;;;;;5.97;3.77;;;;;;;;;;5054035;28;21070;-81
2023/08/29 11:09:13;;;;;;;4.73;3.47;;;;;;;;;;5031382;28;20472;-81
2023/08/29 11:11:40;;;;;;;3.70;3.40;;;;;;;;;;5045101;28;20490;-81
2023/08/29 11:14:07;;;;;;;5.40;4.90;;;;;;;;;;5052975;28;20480;-80
2023/08/29 11:16:35;;;;;;;5.30;4.90;;;;;;;;;;5059013;28;20483;-80
2023/08/29 11:19:10;;;;;;;5.57;4.30;;;;;;;;;;5054317;28;21034;-81
2023/08/29 11:21:38;;;;;;;5.83;3.87;;;;;;;;;;5049856;28;20466;-80
2023/08/29 11:24:06;;;;;;;4.00;3.20;;;;;;;;;;5058742;28;20471;-81
2023/08/29 11:26:33;;;;;;;5.07;4.23;;;;;;;;;;5054815;28;21001;-80
2023/08/29 11:29:00;;;;;;;4.80;4.40;;;;;;;;;;5050601;28;20560;-81
2023/08/29 11:31:27;;;;;;;4.63;3.93;;;;;;;;;;5067967;28;20477;-80
2023/08/29 11:33:53;;;;;;;8.00;5.50;;;;;;;;;;5055231;28;20855;-81
2023/08/29 11:36:20;;;;;;;8.57;6.00;;;;;;;;;;5064186;28;20463;-81
2023/08/29 11:38:49;;;;;;;5.90;4.40;;;;;;;;;;5044134;28;20483;-81
2023/08/29 11:41:16;;;;;;;4.47;3.73;;;;;;;;;;5046601;28;20529;-81
2023/08/29 11:43:44;;;;;;;3.90;2.77;;;;;;;;;;5054649;28;20466;-80
2023/08/29 11:46:13;;;;;;;7.40;3.50;;;;;;;;;;5053286;28;20481;-81
2023/08/29 11:48:41;;;;;;;3.37;3.07;;;;;;;;;;5048317;28;20481;-81
2023/08/29 11:51:08;;;;;;;6.93;3.80;;;;;;;;;;5052824;28;20466;-80
2023/08/29 11:53:34;;;;;;;2.93;2.43;;;;;;;;;;5047822;28;21018;-81
2023/08/29 11:56:05;;;;;;;4.20;2.23;;;;;;;;;;5062287;28;20483;-80
2023/08/29 11:58:32;;;;;;;3.30;2.30;;;;;;;;;;5049271;28;20809;-81
2023/08/29 12:00:58;;;;;;;6.27;2.87;;;;;;;;;;5054857;28;20474;-81
2023/08/29 12:03:26;;;;;;;3.17;2.87;;;;;;;;;;5057810;28;20494;-80
2023/08/29 12:05:52;;;;;;;6.20;3.63;;;;;;;;;;5049773;28;20488;-81
2023/08/29 12:08:33;;;;;;;3.90;3.30;;;;;;;;;;5050397;28;20493;-80
2023/08/29 12:10:59;;;;;;;8.13;3.27;;;;;;;;;;5060449;28;20471;-81
2023/08/29 12:13:27;;;;;;;3.70;3.40;;;;;;;;;;5062529;28;20462;-81
2023/08/29 12:15:54;;;;;;;4.90;4.47;;;;;;;;;;5052528;28;20484;-81
2023/08/29 12:18:21;;;;;;;3.90;3.60;;;;;;;;;;5048086;28;20541;-80
2023/08/29 12:20:47;;;;;;;3.73;3.40;;;;;;;;;;5050884;28;21093;-80
2023/08/29 12:23:14;;;;;;;4.30;3.90;;;;;;;;;;5039183;28;21009;-80
2023/08/29 12:25:40;;;;;;;3.67;3.37;;;;;;;;;;5058713;28;21011;-81
2023/08/29 12:28:07;;;;;;;4.90;4.60;;;;;;;;;;5047777;28;20474;-81
2023/08/29 12:30:34;;;;;;;4.60;3.40;;;;;;;;;;5069460;28;20462;-80
2023/08/29 12:33:05;;;;;;;4.13;3.83;;;;;;;;;;5049328;28;20474;-80
2023/08/29 12:35:31;;;;;;;4.10;3.70;;;;;;;;;;5049347;28;20484;-80
2023/08/29 12:37:58;;;;;;;3.83;3.20;;;;;;;;;;5050365;28;20456;-80
2023/08/29 12:40:24;;;;;;;3.00;2.70;;;;;;;;;;5041877;28;20465;-80
2023/08/29 12:42:51;;;;;;;5.70;3.00;;;;;;;;;;5044215;28;20807;-80
2023/08/29 12:45:19;;;;;;;3.10;2.80;;;;;;;;;;5052484;28;20529;-80
2023/08/29 12:47:50;;;;;;;3.93;2.50;;;;;;;;;;5050155;28;20970;-81
2023/08/29 12:50:17;;;;;;;2.70;2.23;;;;;;;;;;5044054;28;20538;-80
2023/08/29 12:52:45;;;;;;;2.70;2.50;;;;;;;;;;5045990;28;20840;-80
2023/08/29 12:55:12;;;;;;;4.83;1.90;;;;;;;;;;5061344;28;20470;-81
2023/08/29 12:57:40;;;;;;;3.30;2.33;;;;;;;;;;5051841;28;20491;-80
2023/08/29 13:00:07;;;;;;;2.73;2.53;;;;;;;;;;5053774;28;20476;-80
2023/08/29 13:02:34;;;;;;;2.97;2.70;;;;;;;;;;5051880;28;20881;-81
2023/08/29 13:05:02;;;;;;;2.77;2.50;;;;;;;;;;5041825;28;20473;-81
2023/08/29 13:07:28;;;;;;;2.53;2.33;;;;;;;;;;5057809;28;20502;-82
2023/08/29 13:09:55;;;;;;;2.80;2.60;;;;;;;;;;5057801;28;20494;-80
2023/08/29 13:12:21;;;;;;;3.23;2.40;;;;;;;;;;5064838;28;20478;-81
2023/08/29 13:14:48;;;;;;;6.03;3.50;;;;;;;;;;5053289;28;20522;-80
2023/08/29 13:17:16;;;;;;;3.03;2.73;;;;;;;;;;5047308;28;20476;-80
2023/08/29 13:19:42;;;;;;;3.60;3.30;;;;;;;;;;5060383;28;21008;-81
2023/08/29 13:22:10;;;;;;;7.50;2.90;;;;;;;;;;5058141;28;20498;-80
2023/08/29 13:24:37;;;;;;;2.97;2.67;;;;;;;;;;5048059;28;20495;-81
2023/08/29 13:27:03;;;;;;;3.50;2.87;;;;;;;;;;5042221;28;20852;-82
2023/08/29 13:29:30;;;;;;;4.83;3.50;;;;;;;;;;5053466;28;20474;-80
2023/08/29 13:31:57;;;;;;;3.50;2.60;;;;;;;;;;5051149;28;20492;-81
2023/08/29 13:34:23;;;;;;;3.90;2.73;;;;;;;;;;5059422;28;20492;-81
2023/08/29 13:36:53;;;;;;;5.23;1.77;;;;;;;;;;5056068;28;20528;-80
2023/08/29 13:39:21;;;;;;;3.57;2.40;;;;;;;;;;5055587;28;20464;-81
2023/08/29 13:41:47;;;;;;;3.83;2.10;;;;;;;;;;5058811;28;20476;-80
2023/08/29 13:44:14;;;;;;;1.70;1.40;;;;;;;;;;5055705;28;20467;-80
2023/08/29 13:46:41;;;;;;;1.77;1.57;;;;;;;;;;5053489;28;20488;-81
2023/08/29 13:49:08;;;;;;;1.67;1.57;;;;;;;;;;5046031;28;20894;-80
2023/08/29 13:51:34;;;;;;;4.33;1.40;;;;;;;;;;5045021;28;20482;-80
2023/08/29 13:54:01;;;;;;;3.03;1.37;;;;;;;;;;5053812;28;20845;-81
2023/08/29 13:56:29;;;;;;;3.17;1.93;;;;;;;;;;5043853;28;20491;-81
2023/08/29 13:58:57;;;;;;;8.77;3.97;;;;;;;;;;5058066;28;20492;-80
2023/08/29 14:01:24;;;;;;;4.50;2.30;;;;;;;;;;5051705;28;20482;-81
2023/08/29 14:03:51;;;;;;;1.60;1.50;;;;;;;;;;5048195;28;20479;-81
2023/08/29 14:06:17;;;;;;;1.37;1.03;;;;;;;;;;5063355;28;20462;-80
2023/08/29 14:08:44;;;;;;;2.50;1.00;;;;;;;;;;5052968;28;20468;-80
2023/08/29 14:11:10;;;;;;;1.20;1.00;;;;;;;;;;5042335;28;20478;-81
2023/08/29 14:13:38;;;;;;;3.03;1.40;;;;;;;;;;5052473;28;20470;-81
2023/08/29 14:16:05;;;;;;;46.83;20.40;;;;;;;;;;5052085;28;20980;-80
2023/08/29 14:18:31;;;;;;;13.77;6.20;;;;;;;;;;5061289;28;20462;-81
2023/08/29 14:20:58;;;;;;;20.17;7.87;;;;;;;;;;5058863;28;20478;-82
2023/08/29 14:23:25;;;;;;;1.60;1.50;;;;;;;;;;5029791;28;20481;-80
2023/08/29 14:25:53;;;;;;;1.90;1.77;;;;;;;;;;5040525;28;20952;-80
2023/08/29 14:28:19;;;;;;;1.67;1.17;;;;;;;;;;5043165;28;20469;-81
2023/08/29 14:30:48;;;;;;;3.43;1.13;;;;;;;;;;5058092;28;20489;-81
2023/08/29 14:33:15;;;;;;;2.53;1.50;;;;;;;;;;5053213;28;20468;-80
2023/08/29 14:35:41;;;;;;;1.80;1.60;;;;;;;;;;5039620;28;20461;-81
2023/08/29 14:38:08;;;;;;;1.80;1.50;;;;;;;;;;5042625;28;20477;-81
2023/08/29 14:40:34;;;;;;;1.93;1.40;;;;;;;;;;5052360;28;20486;-81